Time;durP1;ratioP1;P1;durP2;ratioP2;P2;SDS_P1;SDS_P2;PMS_P1;PMS_P2;Temp;Humidity;BMP_temperature;BMP_pressure;BME280_temperature;BME280_humidity;BME280_pressure;Samples;Min_cycle;Max_cycle;Signal;HPM_P1;HPM_P2
2022/10/08 00:00:12;;;;;;;13.82;10.45;;;;;;;11.99;100.00;97606.03;5026542;28;20037;-62
2022/10/08 00:02:39;;;;;;;14.68;9.93;;;;;;;12.07;100.00;97607.50;5027130;28;20053;-62
2022/10/08 00:05:06;;;;;;;15.88;10.30;;;;;;;12.14;100.00;97610.00;5025945;28;20030;-61
2022/10/08 00:07:32;;;;;;;14.52;9.70;;;;;;;12.16;100.00;97605.97;5026987;28;20045;-62
2022/10/08 00:09:59;;;;;;;13.18;10.18;;;;;;;11.99;100.00;97608.75;5026693;28;20037;-62
2022/10/08 00:12:25;;;;;;;14.98;10.85;;;;;;;11.91;100.00;97607.28;5025317;28;20047;-62
2022/10/08 00:14:52;;;;;;;19.08;10.43;;;;;;;11.87;100.00;97608.09;5026836;28;20048;-62
2022/10/08 00:17:19;;;;;;;12.65;9.85;;;;;;;11.84;100.00;97621.06;5022601;28;20144;-61
2022/10/08 00:19:45;;;;;;;14.45;10.52;;;;;;;11.80;100.00;97621.84;5026566;28;20046;-61
2022/10/08 00:22:12;;;;;;;13.27;9.73;;;;;;;11.78;100.00;97616.66;5026511;28;20492;-61
2022/10/08 00:24:39;;;;;;;15.50;12.00;;;;;;;11.76;100.00;97618.00;5025962;28;20651;-62
2022/10/08 00:27:05;;;;;;;15.20;11.27;;;;;;;11.71;100.00;97625.00;5026091;28;20879;-61
2022/10/08 00:29:32;;;;;;;16.63;11.13;;;;;;;11.64;100.00;97621.66;5057719;28;20085;-61
2022/10/08 00:31:58;;;;;;;14.23;10.50;;;;;;;11.58;100.00;97619.97;5026085;28;20124;-61
2022/10/08 00:34:25;;;;;;;16.20;11.32;;;;;;;11.56;100.00;97624.81;5025994;28;20096;-61
2022/10/08 00:36:53;;;;;;;19.63;12.30;;;;;;;11.62;100.00;97617.56;5026115;28;20129;-62
2022/10/08 00:39:23;;;;;;;16.98;11.00;;;;;;;11.69;100.00;97620.91;5026039;28;20496;-61
2022/10/08 00:41:52;;;;;;;17.40;11.45;;;;;;;11.75;100.00;97619.06;5025306;28;20224;-61
2022/10/08 00:45:05;;;;;;;16.95;11.23;;;;;;;11.70;100.00;97609.81;5026194;28;20041;-61
2022/10/08 00:47:31;;;;;;;16.52;11.73;;;;;;;11.65;100.00;97611.63;5025689;28;20124;-61
2022/10/08 00:50:03;;;;;;;16.17;11.27;;;;;;;11.63;100.00;97608.34;5025582;28;20120;-61
2022/10/08 00:52:34;;;;;;;19.13;11.73;;;;;;;11.68;100.00;97605.69;5025895;28;20041;-61
2022/10/08 00:55:05;;;;;;;19.05;11.60;;;;;;;11.70;100.00;97600.84;5025638;28;20037;-61
2022/10/08 00:57:34;;;;;;;18.38;11.35;;;;;;;11.67;100.00;97607.59;5026295;28;20075;-61
2022/10/08 01:00:07;;;;;;;16.27;10.40;;;;;;;11.62;100.00;97602.13;5024718;28;20041;-61
2022/10/08 01:02:33;;;;;;;17.38;11.27;;;;;;;11.63;100.00;97609.16;5025213;28;20063;-61
2022/10/08 01:05:01;;;;;;;18.25;10.85;;;;;;;11.67;100.00;97595.91;5025869;28;20408;-61
2022/10/08 01:07:35;;;;;;;17.35;10.20;;;;;;;11.69;100.00;97593.78;5025178;28;20051;-61
2022/10/08 01:10:11;;;;;;;16.20;10.73;;;;;;;11.77;100.00;97590.63;5024897;28;20152;-61
2022/10/08 01:13:10;;;;;;;15.25;11.10;;;;;;;11.88;100.00;97583.41;5025125;28;20050;-61
2022/10/08 01:16:01;;;;;;;15.25;11.05;;;;;;;11.84;100.00;97591.22;5008359;28;20053;-61
2022/10/08 01:18:40;;;;;;;15.27;10.27;;;;;;;11.82;100.00;97587.97;5021603;28;20053;-61
2022/10/08 01:21:14;;;;;;;13.60;10.77;;;;;;;11.85;100.00;97589.34;5025496;28;20564;-61
2022/10/08 01:23:55;;;;;;;19.95;10.73;;;;;;;11.86;100.00;97580.13;5025992;28;20049;-61
2022/10/08 01:26:44;;;;;;;17.60;10.27;;;;;;;11.80;100.00;97581.94;5025466;28;20129;-61
2022/10/08 01:29:21;;;;;;;16.25;10.43;;;;;;;11.80;100.00;97583.88;5026181;28;20067;-61
2022/10/08 01:31:53;;;;;;;14.85;10.48;;;;;;;11.88;100.00;97577.16;5024881;28;20124;-61
2022/10/08 01:34:29;;;;;;;16.02;10.75;;;;;;;11.92;100.00;97581.00;5024087;28;20045;-61
2022/10/08 01:36:58;;;;;;;15.13;9.48;;;;;;;11.86;100.00;97579.31;5024871;28;20076;-61
2022/10/08 01:39:30;;;;;;;16.05;9.50;;;;;;;11.80;100.00;97579.25;5025910;28;20055;-61
2022/10/08 01:41:58;;;;;;;13.82;9.57;;;;;;;11.77;100.00;97579.78;5024891;28;20045;-61
2022/10/08 01:44:33;;;;;;;16.20;10.20;;;;;;;11.78;100.00;97581.41;5025705;28;20044;-61
2022/10/08 01:47:04;;;;;;;14.00;9.90;;;;;;;11.81;100.00;97582.78;5025510;28;20473;-61
2022/10/08 01:49:38;;;;;;;13.45;9.85;;;;;;;11.84;100.00;97574.13;5024962;28;20128;-61
2022/10/08 01:52:11;;;;;;;15.55;9.90;;;;;;;11.87;100.00;97575.53;5025049;28;20492;-61
2022/10/08 01:54:42;;;;;;;13.82;10.23;;;;;;;11.88;100.00;97571.72;5025149;28;20049;-61
2022/10/08 01:57:09;;;;;;;;;;;;;;;11.89;100.00;97571.47;5025488;28;20565;-61
2022/10/08 01:59:41;;;;;;;14.00;9.25;;;;;;;11.91;100.00;97565.78;5025682;28;19943;-61
2022/10/08 02:02:19;;;;;;;17.75;10.45;;;;;;;11.94;100.00;97562.56;5024434;28;20420;-61
2022/10/08 02:04:48;;;;;;;12.82;9.55;;;;;;;12.02;100.00;97567.53;5025670;28;20042;-61
2022/10/08 02:07:17;;;;;;;13.25;8.77;;;;;;;12.14;100.00;97566.56;5025398;28;20091;-61
2022/10/08 02:09:50;;;;;;;16.25;8.55;;;;;;;12.13;100.00;97568.50;5025532;28;20120;-61
2022/10/08 02:12:19;;;;;;;14.52;8.65;;;;;;;12.12;100.00;97561.41;5012790;28;20641;-61
2022/10/08 02:14:49;;;;;;;12.55;8.68;;;;;;;12.03;100.00;97565.63;5028652;28;20594;-61
2022/10/08 02:17:36;;;;;;;14.25;9.85;;;;;;;11.95;100.00;97564.22;5029049;28;20218;-61
2022/10/08 02:20:18;;;;;;;10.98;8.60;;;;;;;11.97;100.00;97557.44;5028807;28;20145;-61
2022/10/08 02:23:06;;;;;;;13.93;9.30;;;;;;;12.00;100.00;97553.41;5028495;28;20126;-61
2022/10/08 02:25:38;;;;;;;11.82;8.07;;;;;;;12.05;100.00;97553.47;5028848;28;20113;-61
2022/10/08 02:28:07;;;;;;;10.77;7.75;;;;;;;12.21;100.00;97564.47;5029391;28;20079;-61
2022/10/08 02:30:39;;;;;;;10.98;8.05;;;;;;;12.08;100.00;97561.09;5028340;28;20052;-62
2022/10/08 02:33:20;;;;;;;17.50;9.52;;;;;;;11.98;100.00;97555.56;5027934;28;20469;-61
2022/10/08 02:35:52;;;;;;;14.23;9.35;;;;;;;11.92;100.00;97562.00;5026874;28;20040;-61
2022/10/08 02:38:29;;;;;;;12.23;9.23;;;;;;;11.99;100.00;97554.47;5027966;28;20395;-61
2022/10/08 02:40:58;;;;;;;12.77;9.00;;;;;;;12.08;100.00;97552.13;5027435;28;20049;-62
2022/10/08 02:43:29;;;;;;;13.27;8.50;;;;;;;12.14;100.00;97558.44;5028201;28;20132;-62
2022/10/08 02:46:08;;;;;;;15.97;9.13;;;;;;;12.10;100.00;97560.84;5028160;28;20038;-62
2022/10/08 02:48:35;;;;;;;15.00;8.80;;;;;;;11.99;100.00;97562.63;5028037;28;20287;-62
2022/10/08 02:51:09;;;;;;;13.68;9.38;;;;;;;11.92;100.00;97562.84;5028083;28;20051;-62
2022/10/08 02:53:38;;;;;;;16.05;9.23;;;;;;;11.88;100.00;97569.84;5028307;28;20805;-61
2022/10/08 02:56:13;;;;;;;16.88;9.30;;;;;;;11.88;100.00;97572.56;5027835;28;20116;-62
2022/10/08 02:58:42;;;;;;;12.48;8.75;;;;;;;11.91;100.00;97572.03;5028562;28;20124;-62
2022/10/08 03:01:27;;;;;;;16.50;9.15;;;;;;;11.96;100.00;97568.56;5027640;28;20033;-61
2022/10/08 03:04:03;;;;;;;14.52;8.25;;;;;;;11.91;100.00;97572.03;5027453;28;20044;-62
2022/10/08 03:06:31;;;;;;;13.43;8.77;;;;;;;11.84;100.00;97579.56;5020428;28;20128;-62
2022/10/08 03:08:59;;;;;;;13.98;9.15;;;;;;;11.90;100.00;97583.97;5027992;28;20120;-61
2022/10/08 03:11:28;;;;;;;13.50;9.23;;;;;;;12.01;100.00;97574.03;5027266;28;20050;-61
2022/10/08 03:13:58;;;;;;;11.65;8.30;;;;;;;12.04;100.00;97576.25;5027809;28;20516;-61
2022/10/08 03:16:33;;;;;;;15.18;9.25;;;;;;;12.19;100.00;97581.03;5027908;28;20041;-61
2022/10/08 03:19:01;;;;;;;14.60;7.95;;;;;;;12.17;100.00;97577.72;5022749;28;20115;-61
2022/10/08 03:21:29;;;;;;;10.68;7.65;;;;;;;12.12;100.00;97580.41;5027367;28;20556;-62
2022/10/08 03:23:56;;;;;;;13.07;8.55;;;;;;;12.02;100.00;97578.38;5027277;28;20068;-62
2022/10/08 03:26:22;;;;;;;11.32;7.93;;;;;;;11.95;100.00;97591.34;5027280;28;20571;-62
2022/10/08 03:28:51;;;;;;;11.75;7.70;;;;;;;11.95;100.00;97592.16;5026278;28;20112;-62
2022/10/08 03:31:18;;;;;;;12.43;7.60;;;;;;;11.91;100.00;97599.16;5025071;28;20052;-62
2022/10/08 03:33:49;;;;;;;10.77;8.02;;;;;;;11.96;100.00;97592.97;5027164;28;20041;-62
2022/10/08 03:36:17;;;;;;;12.85;8.05;;;;;;;11.93;100.00;97593.47;5027258;28;20117;-62
2022/10/08 03:38:43;;;;;;;12.38;8.48;;;;;;;11.90;100.00;97600.25;5027229;28;20049;-62
2022/10/08 03:41:10;;;;;;;14.27;8.88;;;;;;;11.78;100.00;97603.09;5026646;28;20063;-62
2022/10/08 03:43:36;;;;;;;11.98;7.93;;;;;;;11.67;100.00;97607.59;5026724;28;20673;-62
2022/10/08 03:46:03;;;;;;;14.25;7.95;;;;;;;11.62;100.00;97606.72;5026892;28;20773;-62
2022/10/08 03:48:30;;;;;;;10.00;7.93;;;;;;;11.63;100.00;97608.34;5027230;28;20045;-61
2022/10/08 03:50:59;;;;;;;15.77;10.13;;;;;;;11.73;100.00;97615.78;5026302;28;20041;-62
2022/10/08 03:53:26;;;;;;;13.82;8.43;;;;;;;11.66;100.00;97615.97;5027069;28;20124;-62
2022/10/08 03:55:53;;;;;;;12.23;8.70;;;;;;;11.63;100.00;97619.19;5026663;28;20489;-61
2022/10/08 03:58:19;;;;;;;16.90;9.52;;;;;;;11.62;100.00;97618.38;5027086;28;20128;-61
2022/10/08 04:01:04;;;;;;;17.42;8.48;;;;;;;11.55;100.00;97617.75;5026444;28;20037;-62
2022/10/08 04:03:32;;;;;;;11.30;8.05;;;;;;;11.52;100.00;97629.91;5027120;28;20181;-61
2022/10/08 04:05:59;;;;;;;18.05;8.85;;;;;;;11.60;100.00;97627.84;5026775;28;20120;-61
2022/10/08 04:08:26;;;;;;;16.33;8.98;;;;;;;11.61;100.00;97638.41;5026685;28;20081;-61
2022/10/08 04:10:52;;;;;;;14.85;9.60;;;;;;;11.68;100.00;97640.94;5026049;28;20116;-62
2022/10/08 04:13:19;;;;;;;14.05;7.95;;;;;;;11.47;100.00;97629.88;5026512;28;20083;-62
2022/10/08 04:15:49;;;;;;;13.98;9.27;;;;;;;11.44;100.00;97644.75;5026644;28;20696;-62
2022/10/08 04:18:17;;;;;;;13.13;8.73;;;;;;;11.42;100.00;97637.91;5027035;28;20465;-62
2022/10/08 04:20:43;;;;;;;15.75;9.40;;;;;;;11.48;100.00;97639.63;5017762;28;20064;-62
2022/10/08 04:23:11;;;;;;;13.88;8.82;;;;;;;11.50;100.00;97639.38;5021266;28;20038;-62
2022/10/08 04:25:37;;;;;;;15.88;9.77;;;;;;;11.49;100.00;97640.44;5025862;28;20132;-62
2022/10/08 04:28:05;;;;;;;18.23;10.43;;;;;;;11.49;100.00;97643.16;5026799;28;20625;-62
2022/10/08 04:30:31;;;;;;;16.00;8.55;;;;;;;11.56;100.00;97649.22;5026261;28;20053;-61
2022/10/08 04:32:58;;;;;;;16.55;10.65;;;;;;;11.61;100.00;97649.28;5025650;28;20145;-62
2022/10/08 04:35:24;;;;;;;17.73;9.82;;;;;;;11.58;100.00;97649.78;5026037;28;20037;-62
2022/10/08 04:37:51;;;;;;;14.52;9.80;;;;;;;11.58;100.00;97645.16;5025234;28;20444;-62
2022/10/08 04:40:17;;;;;;;14.80;9.40;;;;;;;11.62;100.00;97647.38;5026121;28;20121;-61
2022/10/08 04:42:49;;;;;;;20.63;10.02;;;;;;;11.52;100.00;97648.06;5025879;28;20045;-62
2022/10/08 04:45:15;;;;;;;;;;;;;;;11.46;100.00;97647.19;5026345;28;20124;-62
2022/10/08 04:47:42;;;;;;;12.95;8.98;;;;;;;11.37;100.00;97654.94;5025788;28;20016;-62
2022/10/08 04:50:09;;;;;;;20.05;10.20;;;;;;;11.36;100.00;97660.59;5025331;28;20048;-61
2022/10/08 04:52:35;;;;;;;20.40;10.20;;;;;;;11.42;100.00;97654.19;5024353;28;20165;-62
2022/10/08 04:55:01;;;;;;;13.48;9.30;;;;;;;11.43;100.00;97658.53;5017285;28;20603;-61
2022/10/08 04:57:28;;;;;;;15.77;10.30;;;;;;;11.55;100.00;97658.44;5006239;28;20139;-61
2022/10/08 04:59:54;;;;;;;17.67;8.98;;;;;;;11.59;100.00;97654.13;5025697;28;20477;-61
2022/10/08 05:02:41;;;;;;;16.38;8.88;;;;;;;11.63;100.00;97659.88;5025578;28;20056;-62
2022/10/08 05:05:07;;;;;;;18.92;9.23;;;;;;;11.65;100.00;97661.25;5025841;28;20049;-62
2022/10/08 05:07:34;;;;;;;16.27;9.65;;;;;;;11.71;100.00;97659.44;5025750;28;20080;-62
2022/10/08 05:10:00;;;;;;;17.77;8.43;;;;;;;11.75;100.00;97655.16;5025295;28;20045;-62
2022/10/08 05:12:27;;;;;;;15.13;8.65;;;;;;;11.79;100.00;97661.72;5025512;28;20067;-62
2022/10/08 05:14:53;;;;;;;14.60;8.38;;;;;;;11.81;100.00;97656.88;5025134;28;20533;-62
2022/10/08 05:17:20;;;;;;;17.35;9.05;;;;;;;11.78;100.00;97656.53;5025730;28;20109;-61
2022/10/08 05:19:46;;;;;;;16.13;7.70;;;;;;;11.79;100.00;97655.47;5025684;28;20084;-62
2022/10/08 05:22:12;;;;;;;14.40;7.93;;;;;;;11.75;100.00;97663.28;5021095;28;20736;-62
2022/10/08 05:24:39;;;;;;;14.35;8.23;;;;;;;11.74;100.00;97658.94;5021692;28;20049;-62
2022/10/08 05:27:05;;;;;;;11.82;7.32;;;;;;;11.74;100.00;97666.25;5023356;28;20117;-62
2022/10/08 05:29:32;;;;;;;11.52;7.38;;;;;;;11.73;100.00;97664.59;5013409;28;20045;-62
2022/10/08 05:31:58;;;;;;;14.57;7.57;;;;;;;11.73;100.00;97667.31;5022761;28;20043;-62
2022/10/08 05:34:25;;;;;;;13.18;7.43;;;;;;;11.78;100.00;97660.06;5021573;28;20208;-62
2022/10/08 05:36:51;;;;;;;11.25;7.30;;;;;;;11.86;100.00;97666.94;5023439;28;20605;-62
2022/10/08 05:39:17;;;;;;;10.02;6.93;;;;;;;11.89;100.00;97676.47;5023335;28;20420;-61
2022/10/08 05:41:44;;;;;;;14.52;7.60;;;;;;;11.85;100.00;97678.88;5022916;28;20132;-62
2022/10/08 05:44:11;;;;;;;13.63;7.25;;;;;;;11.84;100.00;97677.25;5023987;28;20150;-62
2022/10/08 05:46:38;;;;;;;12.85;7.63;;;;;;;11.77;100.00;97676.59;5023802;28;20041;-62
2022/10/08 05:49:07;;;;;;;12.15;7.25;;;;;;;11.75;100.00;97676.03;5027518;28;20076;-61
2022/10/08 05:51:34;;;;;;;12.95;8.25;;;;;;;11.75;100.00;97678.75;5027583;28;20046;-62
2022/10/08 05:54:00;;;;;;;15.25;7.53;;;;;;;11.70;100.00;97679.50;5027472;28;20049;-62
2022/10/08 05:56:27;;;;;;;14.70;8.60;;;;;;;11.68;100.00;97682.47;5027594;28;20575;-61
2022/10/08 05:58:54;;;;;;;16.48;8.00;;;;;;;11.63;100.00;97692.41;5027381;28;20041;-62
2022/10/08 06:01:26;;;;;;;18.10;8.07;;;;;;;11.64;100.00;97691.38;5028106;28;20041;-62
2022/10/08 06:03:58;;;;;;;16.15;8.82;;;;;;;11.65;100.00;97693.81;5029115;28;20536;-62
2022/10/08 06:06:34;;;;;;;14.02;7.97;;;;;;;11.67;100.00;97701.69;5029120;28;20034;-61
2022/10/08 06:09:01;;;;;;;16.83;7.95;;;;;;;11.64;100.00;97700.31;5028657;28;20095;-62
2022/10/08 06:11:29;;;;;;;11.63;7.70;;;;;;;11.65;100.00;97703.84;5029065;28;20052;-62
2022/10/08 06:13:57;;;;;;;15.65;8.60;;;;;;;11.68;100.00;97703.31;5029217;28;20073;-61
2022/10/08 06:16:25;;;;;;;13.50;7.80;;;;;;;11.72;100.00;97704.47;5028501;28;20726;-62
2022/10/08 06:18:52;;;;;;;14.27;7.47;;;;;;;11.79;100.00;97713.25;5029135;28;20049;-62
2022/10/08 06:21:21;;;;;;;12.55;7.07;;;;;;;11.87;100.00;97703.03;5028515;28;20053;-62
2022/10/08 06:23:53;;;;;;;9.77;6.55;;;;;;;11.91;100.00;97707.69;5029215;28;20124;-62
2022/10/08 06:26:22;;;;;;;13.10;6.57;;;;;;;11.93;100.00;97712.88;5028306;28;20046;-62
2022/10/08 06:28:49;;;;;;;12.68;7.13;;;;;;;11.89;100.00;97712.56;5028755;28;20126;-62
2022/10/08 06:31:15;;;;;;;11.48;6.63;;;;;;;11.87;100.00;97714.69;5028358;28;20129;-62
2022/10/08 06:33:42;;;;;;;10.98;7.35;;;;;;;11.91;100.00;97720.47;5028754;28;20045;-62
2022/10/08 06:36:20;;;;;;;13.07;6.70;;;;;;;11.90;100.00;97721.53;5028683;28;20041;-62
2022/10/08 06:38:55;;;;;;;13.23;6.93;;;;;;;11.92;100.00;97730.22;5029022;28;20619;-62
2022/10/08 06:41:22;;;;;;;15.32;6.60;;;;;;;11.97;100.00;97738.44;5026027;28;20527;-62
2022/10/08 06:43:48;;;;;;;12.40;6.35;;;;;;;12.07;100.00;97730.47;5026192;28;20045;-62
2022/10/08 06:46:16;;;;;;;10.20;5.82;;;;;;;12.20;100.00;97728.44;5025900;28;20120;-62
2022/10/08 06:48:42;;;;;;;10.25;4.93;;;;;;;12.28;100.00;97733.44;5026843;28;20061;-62
2022/10/08 06:51:11;;;;;;;7.80;4.03;;;;;;;12.40;100.00;97738.72;5025909;28;20128;-62
2022/10/08 06:53:39;;;;;;;6.20;4.40;;;;;;;12.47;100.00;97743.94;5022331;28;20077;-62
2022/10/08 06:56:13;;;;;;;13.60;5.18;;;;;;;12.52;100.00;97743.97;5025810;28;20037;-61
2022/10/08 06:58:41;;;;;;;9.93;4.30;;;;;;;12.70;100.00;97752.84;5018840;28;20089;-62
2022/10/08 07:01:11;;;;;;;11.70;4.22;;;;;;;12.85;98.35;97739.41;5018429;28;20053;-61
2022/10/08 07:03:38;;;;;;;8.35;3.88;;;;;;;12.99;96.90;97747.97;5026748;28;20390;-61
2022/10/08 07:06:10;;;;;;;10.05;4.00;;;;;;;13.19;96.11;97743.78;5025129;28;20126;-62
2022/10/08 07:08:36;;;;;;;;;;;;;;;13.17;96.18;97745.13;5018848;28;20124;-61
2022/10/08 07:11:11;;;;;;;10.27;4.45;;;;;;;13.37;95.36;97744.44;5025799;28;19931;-61
2022/10/08 07:13:38;;;;;;;10.93;5.57;;;;;;;13.36;97.43;97748.25;5024852;28;20049;-61
2022/10/08 07:16:07;;;;;;;13.65;5.72;;;;;;;13.43;97.27;97748.84;5019937;28;20044;-61
2022/10/08 07:18:35;;;;;;;12.90;5.97;;;;;;;13.48;98.76;97753.53;5022962;28;20608;-61
2022/10/08 07:21:03;;;;;;;9.93;5.55;;;;;;;13.72;97.50;97753.16;5024456;28;20049;-61
2022/10/08 07:23:30;;;;;;;11.07;5.10;;;;;;;13.76;96.16;97759.69;5025038;28;20120;-61
2022/10/08 07:26:10;;;;;;;10.05;4.88;;;;;;;13.94;95.66;97768.50;5025776;28;20052;-62
2022/10/08 07:28:39;;;;;;;12.27;5.13;;;;;;;13.79;91.97;97765.41;5024448;28;20059;-62
2022/10/08 07:31:33;;;;;;;11.85;4.05;;;;;;;13.89;89.91;97782.88;5024893;28;20754;-62
2022/10/08 07:34:01;;;;;;;11.27;3.85;;;;;;;14.02;86.92;97784.34;5029357;28;20765;-60
2022/10/08 07:36:28;;;;;;;8.77;3.30;;;;;;;13.93;85.06;97784.00;5017437;28;20116;-62
2022/10/08 07:38:57;;;;;;;11.00;3.17;;;;;;;13.96;83.55;97780.75;5025954;28;20143;-62
2022/10/08 07:41:24;;;;;;;10.18;3.20;;;;;;;13.80;80.83;97788.03;5024693;28;20543;-62
2022/10/08 07:43:53;;;;;;;7.38;2.45;;;;;;;13.85;80.53;97785.34;5025681;28;20048;-61
2022/10/08 07:46:20;;;;;;;9.52;2.55;;;;;;;13.63;81.42;97780.00;5025315;28;20120;-61
2022/10/08 07:48:46;;;;;;;7.47;2.28;;;;;;;13.72;79.22;97780.34;5025416;28;20124;-61
2022/10/08 07:51:15;;;;;;;8.38;2.53;;;;;;;13.78;78.98;97784.72;5024870;28;20049;-61
2022/10/08 07:53:43;;;;;;;9.85;2.60;;;;;;;13.77;78.98;97791.25;5023667;28;20049;-61
2022/10/08 07:56:11;;;;;;;7.00;2.55;;;;;;;13.87;79.89;97788.63;5024784;28;20572;-62
2022/10/08 07:58:38;;;;;;;8.65;2.95;;;;;;;13.96;78.79;97790.84;5024854;28;20057;-62
2022/10/08 08:01:07;;;;;;;9.90;3.38;;;;;;;14.01;77.26;97794.41;5022874;28;20045;-62
2022/10/08 08:03:34;;;;;;;12.20;2.83;;;;;;;14.08;75.67;97787.91;5023100;28;20150;-62
2022/10/08 08:06:04;;;;;;;10.02;2.47;;;;;;;14.16;75.50;97795.56;5021601;28;20516;-62
2022/10/08 08:08:30;;;;;;;9.30;2.33;;;;;;;14.18;74.62;97794.22;5022245;28;20556;-62
2022/10/08 08:10:58;;;;;;;9.25;2.45;;;;;;;14.30;74.93;97791.28;5022069;28;20049;-62
2022/10/08 08:13:26;;;;;;;8.80;2.40;;;;;;;14.42;74.57;97796.47;5019243;28;20049;-62
2022/10/08 08:16:00;;;;;;;7.80;2.47;;;;;;;14.56;75.56;97788.63;5016823;28;20140;-61
2022/10/08 08:18:28;;;;;;;7.72;2.90;;;;;;;14.46;73.00;97795.97;5017886;28;20088;-62
2022/10/08 08:21:04;;;;;;;8.48;2.38;;;;;;;14.59;73.52;97800.09;5021758;28;20133;-62
2022/10/08 08:23:32;;;;;;;8.52;2.22;;;;;;;14.64;73.59;97809.13;5016102;28;20112;-62
2022/10/08 08:26:05;;;;;;;12.18;5.05;;;;;;;14.62;73.00;97800.38;5020789;28;20037;-62
2022/10/08 08:28:31;;;;;;;10.32;2.25;;;;;;;14.66;72.29;97812.38;5019236;28;20041;-62
2022/10/08 08:31:14;;;;;;;10.48;2.25;;;;;;;14.68;68.62;97809.38;5022808;28;20516;-62
2022/10/08 08:33:42;;;;;;;9.85;2.15;;;;;;;14.60;67.41;97820.81;5019931;28;20053;-62
2022/10/08 08:36:08;;;;;;;6.90;2.28;;;;;;;14.43;66.11;97813.66;5023978;28;20063;-62
2022/10/08 08:38:36;;;;;;;10.68;2.53;;;;;;;14.44;66.53;97823.47;5024551;28;20523;-62
2022/10/08 08:41:16;;;;;;;9.65;2.15;;;;;;;14.49;67.21;97830.84;5023713;28;20570;-62
2022/10/08 08:43:46;;;;;;;11.73;2.22;;;;;;;14.44;66.63;97820.75;5023370;28;20548;-62
2022/10/08 08:46:18;;;;;;;9.15;2.63;;;;;;;14.61;65.17;97826.00;5024476;28;20048;-62
2022/10/08 08:48:45;;;;;;;6.18;1.60;;;;;;;14.28;64.97;97817.13;5023798;28;20052;-62
2022/10/08 08:51:12;;;;;;;11.05;2.75;;;;;;;14.27;66.34;97831.84;5023362;28;20120;-62
2022/10/08 08:53:38;;;;;;;7.85;1.75;;;;;;;14.31;65.42;97828.31;5023750;28;20072;-62
2022/10/08 08:56:10;;;;;;;12.27;2.50;;;;;;;14.48;66.36;97829.22;5024341;28;20045;-62
2022/10/08 08:58:36;;;;;;;;;;;;;;;14.40;65.17;97820.47;5022302;28;20160;-62
2022/10/08 09:01:09;;;;;;;9.85;2.13;;;;;;;14.46;65.16;97823.19;5023667;28;19980;-62
2022/10/08 09:03:44;;;;;;;8.45;2.13;;;;;;;14.33;66.69;97828.06;5024490;28;20107;-62
2022/10/08 09:06:13;;;;;;;14.18;2.22;;;;;;;14.47;67.09;97831.13;5024165;28;20130;-62
2022/10/08 09:08:53;;;;;;;10.60;1.88;;;;;;;14.56;67.68;97824.06;5022437;28;20099;-62
2022/10/08 09:11:21;;;;;;;9.23;2.60;;;;;;;14.67;66.02;97835.81;5023673;28;20049;-62
2022/10/08 09:13:58;;;;;;;8.38;1.73;;;;;;;14.56;65.77;97834.97;5023985;28;20132;-62
2022/10/08 09:16:27;;;;;;;12.77;2.17;;;;;;;14.60;65.80;97832.53;5021205;28;20041;-62
2022/10/08 09:18:54;;;;;;;6.68;1.90;;;;;;;14.54;65.19;97841.75;5023209;28;20077;-62
2022/10/08 09:21:24;;;;;;;7.68;1.65;;;;;;;14.59;65.57;97840.97;5020843;28;20134;-62
2022/10/08 09:23:50;;;;;;;8.57;1.65;;;;;;;14.52;66.21;97847.47;5023428;28;20125;-62
2022/10/08 09:26:20;;;;;;;6.90;1.88;;;;;;;14.69;66.58;97849.19;5022293;28;20084;-60
2022/10/08 09:28:50;;;;;;;6.60;1.83;;;;;;;14.41;64.77;97846.63;5022761;28;20037;-59
2022/10/08 09:31:25;;;;;;;6.05;1.73;;;;;;;14.60;65.67;97850.78;5020878;28;20500;-59
2022/10/08 09:33:56;;;;;;;8.73;2.10;;;;;;;14.67;65.40;97857.63;5023030;28;20120;-59
2022/10/08 09:36:32;;;;;;;13.37;6.70;;;;;;;14.79;64.29;97860.16;5023373;28;20121;-59
2022/10/08 09:39:03;;;;;;;10.38;5.32;;;;;;;14.83;64.49;97857.72;5023157;28;20050;-60
2022/10/08 09:41:29;;;;;;;8.75;3.38;;;;;;;14.85;61.70;97863.69;5022576;28;20830;-59
2022/10/08 09:44:10;;;;;;;10.20;1.85;;;;;;;14.83;62.34;97872.16;5023314;28;20052;-64
2022/10/08 09:46:37;;;;;;;8.65;1.80;;;;;;;14.60;63.29;97864.41;5023595;28;20511;-63
2022/10/08 09:49:32;;;;;;;9.27;2.33;;;;;;;14.52;62.73;97871.19;5023279;28;20065;-63
2022/10/08 09:52:12;;;;;;;18.20;6.80;;;;;;;14.59;61.52;97858.13;5022441;28;20504;-63
2022/10/08 09:54:53;;;;;;;10.63;2.92;;;;;;;14.75;62.31;97866.38;5023388;28;20064;-59
2022/10/08 09:57:20;;;;;;;7.55;1.85;;;;;;;14.87;61.30;97858.81;5023463;28;20037;-61
2022/10/08 09:59:51;;;;;;;11.88;3.45;;;;;;;14.74;62.05;97864.75;5017547;28;20057;-62
2022/10/08 10:02:30;;;;;;;13.20;5.85;;;;;;;14.57;60.18;97863.03;5022802;28;20052;-60
2022/10/08 10:04:58;;;;;;;10.02;4.60;;;;;;;14.69;62.09;97862.81;5023170;28;20658;-60
2022/10/08 10:07:39;;;;;;;8.70;2.53;;;;;;;14.83;61.79;97868.63;5018234;28;20059;-62
2022/10/08 10:10:41;;;;;;;12.57;4.03;;;;;;;15.02;62.27;97873.56;5015885;28;20122;-61
2022/10/08 10:13:17;;;;;;;8.65;3.35;;;;;;;15.08;58.78;97861.59;5020455;28;20114;-62
2022/10/08 10:16:10;;;;;;;7.75;1.63;;;;;;;15.09;59.00;97871.41;5021106;28;20535;-61
2022/10/08 10:18:51;;;;;;;8.98;2.00;;;;;;;15.22;59.48;97872.78;5021347;28;20136;-61
2022/10/08 10:21:22;;;;;;;;;;;;;;;15.28;60.10;97873.63;5022474;28;20128;-61
2022/10/08 10:24:03;;;;;;;9.18;2.25;;;;;;;15.08;58.97;97877.97;5023420;28;19925;-61
2022/10/08 10:26:36;;;;;;;4.80;1.27;;;;;;;15.14;58.38;97874.16;5022873;28;20045;-61
2022/10/08 10:29:16;;;;;;;13.20;2.20;;;;;;;14.98;57.76;97873.28;5023022;28;20049;-61
2022/10/08 10:32:07;;;;;;;8.02;1.40;;;;;;;14.81;58.03;97866.16;5021975;28;20067;-61
2022/10/08 10:34:38;;;;;;;7.18;1.42;;;;;;;14.80;60.67;97872.69;5012018;28;20042;-60
2022/10/08 10:37:12;;;;;;;8.65;1.65;;;;;;;14.98;60.09;97867.00;5026554;28;20136;-61
2022/10/08 10:39:50;;;;;;;8.63;1.60;;;;;;;15.03;59.25;97867.84;5026906;28;20057;-61
2022/10/08 10:42:29;;;;;;;9.80;2.25;;;;;;;15.20;60.51;97874.97;5023837;28;20054;-61
2022/10/08 10:45:20;;;;;;;8.50;2.80;;;;;;;14.94;58.79;97864.00;5026514;28;20049;-61
2022/10/08 10:47:49;;;;;;;5.68;1.40;;;;;;;14.97;60.13;97870.84;5026587;28;20033;-60
2022/10/08 10:50:24;;;;;;;7.00;1.58;;;;;;;15.08;58.48;97877.97;5025965;28;20240;-61
2022/10/08 10:53:00;;;;;;;5.78;1.83;;;;;;;15.11;56.67;97874.69;5026188;28;20041;-59
2022/10/08 10:55:52;;;;;;;7.85;1.75;;;;;;;15.19;57.25;97874.16;5024539;28;20049;-61
2022/10/08 10:58:24;;;;;;;7.82;1.60;;;;;;;15.12;57.07;97875.50;5026685;28;20045;-62
2022/10/08 11:00:53;;;;;;;6.25;1.40;;;;;;;15.20;57.84;97880.44;5025217;28;20452;-61
2022/10/08 11:03:39;;;;;;;10.10;1.67;;;;;;;15.29;57.20;97867.09;5026172;28;20460;-61
2022/10/08 11:06:17;;;;;;;8.68;2.00;;;;;;;15.28;57.38;97865.44;5026348;28;20500;-61
2022/10/08 11:09:11;;;;;;;10.20;2.47;;;;;;;15.36;58.31;97877.75;5025927;28;20256;-61
2022/10/08 11:11:49;;;;;;;7.78;1.50;;;;;;;15.53;59.30;97878.31;5020158;28;20055;-61
2022/10/08 11:14:36;;;;;;;7.20;1.75;;;;;;;15.30;59.01;97882.38;5013921;28;20351;-61
2022/10/08 11:17:28;;;;;;;4.53;1.48;;;;;;;15.49;59.20;97879.94;5026254;28;20049;-61
2022/10/08 11:20:24;;;;;;;8.70;1.40;;;;;;;15.41;57.54;97878.53;5025581;28;20133;-60
2022/10/08 11:22:59;;;;;;;7.07;1.55;;;;;;;15.51;59.70;97875.00;5025759;28;20420;-61
2022/10/08 11:25:36;;;;;;;5.35;1.25;;;;;;;15.23;56.67;97879.06;5024712;28;20124;-61
2022/10/08 11:28:49;;;;;;;6.60;1.40;;;;;;;15.33;58.40;97876.34;5025937;28;20049;-61
2022/10/08 11:31:41;;;;;;;5.55;1.10;;;;;;;15.36;59.04;97878.53;5024735;28;20087;-61
2022/10/08 11:34:20;;;;;;;4.57;1.05;;;;;;;15.17;57.25;97867.31;5024477;28;20111;-61
2022/10/08 11:37:14;;;;;;;4.68;1.10;;;;;;;15.19;58.04;97876.06;5026064;28;20132;-59
2022/10/08 11:39:56;;;;;;;6.85;2.33;;;;;;;15.41;59.00;97869.56;5025059;28;20349;-61
2022/10/08 11:43:04;;;;;;;8.00;1.33;;;;;;;15.63;57.96;97873.94;5025417;28;20164;-61